Time;durP1;ratioP1;P1;durP2;ratioP2;P2;SDS_P1;SDS_P2;PMS_P1;PMS_P2;Temp;Humidity;BMP_temperature;BMP_pressure;BME280_temperature;BME280_humidity;BME280_pressure;Samples;Min_cycle;Max_cycle;Signal;HPM_P1;HPM_P2
2022/06/15 00:00:23;;;;;;;;;;;20.50;70.00;;;;;;5048975;28;87107;-49
2022/06/15 00:02:48;;;;;;;;;;;20.50;69.90;;;;;;5045587;28;87973;-46
2022/06/15 00:05:14;;;;;;;;;;;20.50;70.00;;;;;;5045907;28;87134;-47
2022/06/15 00:07:39;;;;;;;;;;;20.50;70.00;;;;;;5045971;28;87357;-47
2022/06/15 00:10:05;;;;;;;;;;;20.40;69.90;;;;;;5045420;28;88045;-47
2022/06/15 00:12:31;;;;;;;;;;;20.40;70.00;;;;;;5045257;28;87661;-47
2022/06/15 00:14:56;;;;;;;;;;;20.40;69.90;;;;;;5046308;28;87384;-45
2022/06/15 00:17:22;;;;;;;;;;;20.40;70.00;;;;;;5045307;28;88236;-46
2022/06/15 00:19:47;;;;;;;;;;;20.40;70.00;;;;;;5045954;28;87637;-44
2022/06/15 00:22:13;;;;;;;;;;;20.40;70.00;;;;;;5047917;28;88026;-48
2022/06/15 00:24:38;;;;;;;;;;;20.40;70.00;;;;;;5045444;28;87154;-45
2022/06/15 00:27:04;;;;;;;;;;;20.40;70.00;;;;;;5045699;27;87323;-45
2022/06/15 00:29:30;;;;;;;;;;;20.30;69.90;;;;;;5045281;28;87260;-47
2022/06/15 00:31:56;;;;;;;;;;;20.30;70.00;;;;;;5045579;28;87025;-45
2022/06/15 00:34:21;;;;;;;;;;;20.30;70.00;;;;;;5045305;27;88787;-47
2022/06/15 00:36:47;;;;;;;;;;;20.30;70.10;;;;;;5045280;28;87824;-47
2022/06/15 00:39:12;;;;;;;;;;;20.30;70.00;;;;;;5045696;28;86187;-47
2022/06/15 00:41:38;;;;;;;;;;;20.30;69.90;;;;;;5048082;28;87109;-46
2022/06/15 00:44:19;;;;;;;;;;;20.30;70.10;;;;;;5045340;28;87063;-47
2022/06/15 00:46:46;;;;;;;;;;;20.20;70.00;;;;;;5044866;28;88551;-46
2022/06/15 00:49:17;;;;;;;;;;;20.30;70.10;;;;;;5044896;28;88085;-48
2022/06/15 00:51:43;;;;;;;;;;;20.30;70.00;;;;;;5045199;28;87036;-45
2022/06/15 00:54:09;;;;;;;;;;;20.20;70.00;;;;;;5045337;27;87440;-47
2022/06/15 00:56:36;;;;;;;;;;;20.20;70.00;;;;;;5044785;28;88102;-47
2022/06/15 00:59:05;;;;;;;;;;;20.20;70.00;;;;;;5045107;28;87113;-45
2022/06/15 01:01:30;;;;;;;;;;;20.20;70.10;;;;;;5043699;27;87476;-47
2022/06/15 01:03:57;;;;;;;;;;;20.10;70.00;;;;;;5048222;28;87341;-44
2022/06/15 01:06:22;;;;;;;;;;;20.10;70.00;;;;;;5044821;27;87374;-47
2022/06/15 01:08:54;;;;;;;;;;;20.10;70.00;;;;;;5044460;28;89433;-46
2022/06/15 01:11:22;;;;;;;;;;;20.10;70.00;;;;;;5044195;28;87810;-47
2022/06/15 01:14:11;;;;;;;;;;;20.10;70.00;;;;;;5045144;27;88126;-46
2022/06/15 01:16:48;;;;;;;;;;;20.10;70.10;;;;;;5044775;28;88127;-46
2022/06/15 01:19:14;;;;;;;;;;;20.10;70.00;;;;;;5044842;28;86988;-49
2022/06/15 01:21:41;;;;;;;;;;;20.10;70.00;;;;;;5044666;28;87424;-45
2022/06/15 01:24:10;;;;;;;;;;;20.00;70.00;;;;;;5044406;28;87265;-44
2022/06/15 01:26:50;;;;;;;;;;;20.00;70.00;;;;;;5047471;28;87012;-45
2022/06/15 01:29:31;;;;;;;;;;;20.00;70.10;;;;;;5044769;28;87253;-45
2022/06/15 01:32:02;;;;;;;;;;;20.00;70.00;;;;;;5044353;28;87027;-45
2022/06/15 01:34:32;;;;;;;;;;;20.00;70.00;;;;;;5044742;27;87171;-47
2022/06/15 01:36:58;;;;;;;;;;;19.90;70.00;;;;;;5043222;28;88922;-45
2022/06/15 01:39:42;;;;;;;;;;;19.90;70.00;;;;;;5044615;28;87119;-48
2022/06/15 01:42:09;;;;;;;;;;;19.90;69.90;;;;;;5044318;27;88116;-47
2022/06/15 01:44:40;;;;;;;;;;;19.90;70.00;;;;;;5043896;28;88116;-45
2022/06/15 01:47:07;;;;;;;;;;;19.90;70.00;;;;;;5044498;28;87104;-46
2022/06/15 01:49:38;;;;;;;;;;;19.90;69.90;;;;;;5046980;28;87621;-46
2022/06/15 01:52:05;;;;;;;;;;;19.80;69.90;;;;;;5044289;28;87101;-46
2022/06/15 01:54:30;;;;;;;;;;;19.80;70.00;;;;;;5044167;27;88597;-47
2022/06/15 01:56:57;;;;;;;;;;;19.80;70.00;;;;;;5043580;28;88169;-47
2022/06/15 01:59:26;;;;;;;;;;;19.80;70.00;;;;;;5044119;28;87095;-45
2022/06/15 02:02:11;;;;;;;;;;;19.80;70.00;;;;;;5043245;28;88046;-47
2022/06/15 02:04:36;;;;;;;;;;;19.80;70.10;;;;;;5043801;28;88122;-45
2022/06/15 02:07:05;;;;;;;;;;;19.70;70.00;;;;;;5043687;28;87184;-46
2022/06/15 02:09:31;;;;;;;;;;;19.70;70.00;;;;;;5044090;27;87249;-47
2022/06/15 02:11:57;;;;;;;;;;;19.70;70.10;;;;;;5045630;28;88178;-47
2022/06/15 02:14:25;;;;;;;;;;;19.70;70.10;;;;;;5044036;28;87586;-45
2022/06/15 02:16:52;;;;;;;;;;;19.70;70.00;;;;;;5043471;28;88168;-45
2022/06/15 02:19:21;;;;;;;;;;;19.70;70.00;;;;;;5044320;28;86851;-45
2022/06/15 02:21:48;;;;;;;;;;;19.60;70.00;;;;;;5043664;27;87372;-44
2022/06/15 02:24:15;;;;;;;;;;;19.60;69.90;;;;;;5043301;28;89378;-46
2022/06/15 02:26:41;;;;;;;;;;;19.60;70.00;;;;;;5043101;28;88139;-47
2022/06/15 02:29:13;;;;;;;;;;;19.60;70.00;;;;;;5043458;27;89039;-47
2022/06/15 02:31:39;;;;;;;;;;;19.60;69.90;;;;;;5043294;28;87447;-46
2022/06/15 02:34:04;;;;;;;;;;;19.60;69.90;;;;;;5046316;28;86996;-47
2022/06/15 02:36:33;;;;;;;;;;;19.50;70.00;;;;;;5043086;28;87806;-48
2022/06/15 02:38:59;;;;;;;;;;;19.60;70.00;;;;;;5043390;28;87118;-47
2022/06/15 02:41:25;;;;;;;;;;;19.50;70.00;;;;;;5043582;27;87483;-46
2022/06/15 02:43:52;;;;;;;;;;;19.50;70.00;;;;;;5043772;28;87239;-48
2022/06/15 02:46:18;;;;;;;;;;;19.50;70.00;;;;;;5043374;28;87118;-45
2022/06/15 02:48:44;;;;;;;;;;;19.50;70.00;;;;;;5043437;27;87531;-46
2022/06/15 02:51:17;;;;;;;;;;;19.40;69.90;;;;;;5042377;28;89039;-46
2022/06/15 02:53:42;;;;;;;;;;;19.50;70.00;;;;;;5046266;28;87192;-46
2022/06/15 02:56:11;;;;;;;;;;;19.40;69.90;;;;;;5042760;28;88113;-44
2022/06/15 02:58:38;;;;;;;;;;;19.40;70.10;;;;;;5043026;28;87041;-46
2022/06/15 03:01:04;;;;;;;;;;;19.40;70.00;;;;;;5042854;27;88935;-46
2022/06/15 03:03:30;;;;;;;;;;;19.30;69.90;;;;;;5042618;28;87850;-45
2022/06/15 03:05:56;;;;;;;;;;;19.30;70.00;;;;;;5042978;28;87114;-48
2022/06/15 03:08:21;;;;;;;;;;;19.30;69.90;;;;;;5043597;27;87430;-46
2022/06/15 03:10:51;;;;;;;;;;;19.30;69.80;;;;;;5042785;28;88130;-45
2022/06/15 03:13:16;;;;;;;;;;;19.30;70.00;;;;;;5042728;28;87018;-46
2022/06/15 03:15:42;;;;;;;;;;;19.20;70.00;;;;;;5044876;28;87836;-45
2022/06/15 03:18:07;;;;;;;;;;;19.20;70.10;;;;;;5042750;28;87177;-47
2022/06/15 03:20:33;;;;;;;;;;;19.20;70.00;;;;;;5042594;27;88788;-46
2022/06/15 03:22:59;;;;;;;;;;;19.20;70.00;;;;;;5042140;28;87727;-47
2022/06/15 03:25:24;;;;;;;;;;;19.20;70.60;;;;;;5042356;28;87108;-44
2022/06/15 03:27:50;;;;;;;;;;;19.20;70.00;;;;;;5042827;27;87566;-45
2022/06/15 03:30:16;;;;;;;;;;;19.10;70.10;;;;;;5042369;28;88010;-47
2022/06/15 03:32:42;;;;;;;;;;;19.10;70.10;;;;;;5043246;28;86764;-47
2022/06/15 03:35:09;;;;;;;;;;;19.10;70.10;;;;;;5042766;27;86972;-47
2022/06/15 03:37:34;;;;;;;;;;;19.10;70.10;;;;;;5045388;28;87831;-45
2022/06/15 03:40:00;;;;;;;;;;;19.10;69.90;;;;;;5042234;28;87861;-45
2022/06/15 03:42:25;;;;;;;;;;;19.10;69.90;;;;;;5042321;28;88145;-46
2022/06/15 03:44:53;;;;;;;;;;;19.10;70.00;;;;;;5042799;28;87172;-46
2022/06/15 03:47:19;;;;;;;;;;;19.10;69.90;;;;;;5042447;28;87405;-49
2022/06/15 03:49:45;;;;;;;;;;;19.00;70.00;;;;;;5042035;28;89348;-45
2022/06/15 03:52:11;;;;;;;;;;;19.00;70.10;;;;;;5042577;28;87164;-45
2022/06/15 03:54:37;;;;;;;;;;;18.90;70.20;;;;;;5042537;27;86920;-44
2022/06/15 03:57:03;;;;;;;;;;;18.90;70.00;;;;;;5042406;28;87240;-47
2022/06/15 03:59:29;;;;;;;;;;;18.90;70.00;;;;;;5045346;28;87139;-49
2022/06/15 04:01:55;;;;;;;;;;;18.90;70.00;;;;;;5042104;28;87141;-46
2022/06/15 04:04:20;;;;;;;;;;;19.00;69.80;;;;;;5041587;28;88066;-45
2022/06/15 04:06:46;;;;;;;;;;;18.90;70.00;;;;;;5042508;28;88307;-45
2022/06/15 04:09:11;;;;;;;;;;;18.90;70.00;;;;;;5041874;28;88140;-47
2022/06/15 04:14:21;;;;;;;;;;;18.90;69.90;;;;;;5042406;28;87175;-46
2022/06/15 04:16:53;;;;;;;;;;;18.90;70.00;;;;;;5041493;28;87921;-46
2022/06/15 04:19:22;;;;;;;;;;;18.90;70.00;;;;;;5042081;28;87079;-44
2022/06/15 04:21:47;;;;;;;;;;;18.90;69.90;;;;;;5044945;27;88532;-46
2022/06/15 04:24:13;;;;;;;;;;;18.80;69.90;;;;;;5042254;28;87184;-46
2022/06/15 04:26:39;;;;;;;;;;;18.80;69.90;;;;;;5041959;28;87469;-46
2022/06/15 04:29:04;;;;;;;;;;;18.80;70.00;;;;;;5040889;28;89223;-45
2022/06/15 04:31:30;;;;;;;;;;;18.80;69.90;;;;;;5041784;28;87671;-47
2022/06/15 04:33:56;;;;;;;;;;;18.80;69.90;;;;;;5042209;28;87373;-47
2022/06/15 04:36:22;;;;;;;;;;;18.80;69.90;;;;;;5044570;28;87978;-45
2022/06/15 04:38:48;;;;;;;;;;;18.80;69.90;;;;;;5045486;28;87088;-48
2022/06/15 04:41:13;;;;;;;;;;;18.80;70.00;;;;;;5047981;27;87028;-45
2022/06/15 04:43:39;;;;;;;;;;;18.80;70.00;;;;;;5045661;28;87215;-49
2022/06/15 04:46:04;;;;;;;;;;;18.70;70.00;;;;;;5045433;28;87102;-47
2022/06/15 04:48:30;;;;;;;;;;;18.80;69.80;;;;;;5045097;28;88178;-45
2022/06/15 04:50:55;;;;;;;;;;;18.80;69.80;;;;;;5045310;28;87105;-47
2022/06/15 04:53:21;;;;;;;;;;;18.80;69.90;;;;;;5044633;27;87898;-46
2022/06/15 04:55:46;;;;;;;;;;;18.70;70.00;;;;;;5044694;28;89338;-44
2022/06/15 04:58:12;;;;;;;;;;;18.80;70.10;;;;;;5045358;28;86996;-45
2022/06/15 05:00:40;;;;;;;;;;;18.70;70.00;;;;;;5044816;27;88706;-46
2022/06/15 05:03:06;;;;;;;;;;;18.70;70.00;;;;;;5047604;28;88063;-48
2022/06/15 05:05:32;;;;;;;;;;;18.70;70.00;;;;;;5045104;27;87318;-46
2022/06/15 05:07:57;;;;;;;;;;;18.80;69.90;;;;;;5044600;28;87975;-45
2022/06/15 05:10:24;;;;;;;;;;;18.70;70.00;;;;;;5045400;28;86370;-45
2022/06/15 05:12:50;;;;;;;;;;;18.70;70.00;;;;;;5044711;28;87155;-48
2022/06/15 05:15:16;;;;;;;;;;;18.80;70.00;;;;;;5044223;28;89731;-48
2022/06/15 05:17:42;;;;;;;;;;;18.80;69.90;;;;;;5044159;28;87985;-46
2022/06/15 05:20:09;;;;;;;;;;;18.80;70.00;;;;;;5044648;28;88364;-46
2022/06/15 05:22:36;;;;;;;;;;;18.80;69.90;;;;;;5044294;28;88627;-45
2022/06/15 05:25:02;;;;;;;;;;;18.80;69.90;;;;;;5047547;28;87059;-46
2022/06/15 05:27:27;;;;;;;;;;;18.80;70.00;;;;;;5044351;28;88098;-45
2022/06/15 05:29:53;;;;;;;;;;;18.80;70.00;;;;;;5044394;28;87057;-49
2022/06/15 05:32:18;;;;;;;;;;;18.80;70.00;;;;;;5044732;28;87503;-48
2022/06/15 05:34:44;;;;;;;;;;;18.80;70.00;;;;;;5044748;28;87407;-47
2022/06/15 05:37:09;;;;;;;;;;;18.80;70.00;;;;;;5044389;28;87133;-45
2022/06/15 05:39:35;;;;;;;;;;;18.80;70.20;;;;;;5044644;28;87130;-47
2022/06/15 05:42:03;;;;;;;;;;;18.80;70.10;;;;;;5043485;28;88907;-44
2022/06/15 05:47:13;;;;;;;;;;;18.90;70.00;;;;;;5044062;28;87413;-45
2022/06/15 05:49:38;;;;;;;;;;;18.80;70.10;;;;;;5044456;28;87040;-45
2022/06/15 05:52:04;;;;;;;;;;;18.80;70.00;;;;;;5044524;28;87555;-45
2022/06/15 05:54:29;;;;;;;;;;;18.80;70.00;;;;;;5044095;28;87136;-46
2022/06/15 05:56:55;;;;;;;;;;;18.80;70.00;;;;;;5043875;28;87219;-47
2022/06/15 05:59:21;;;;;;;;;;;18.80;70.00;;;;;;5042995;28;90359;-50
2022/06/15 06:01:46;;;;;;;;;;;18.80;70.00;;;;;;5043921;28;87949;-45
2022/06/15 06:04:16;;;;;;;;;;;18.80;70.00;;;;;;5043737;28;87250;-47
2022/06/15 06:06:42;;;;;;;;;;;18.90;70.10;;;;;;5043284;28;87827;-47
2022/06/15 06:09:07;;;;;;;;;;;18.80;70.00;;;;;;5046700;28;87915;-46
2022/06/15 06:11:33;;;;;;;;;;;18.80;70.10;;;;;;5043412;28;87295;-46
2022/06/15 06:13:58;;;;;;;;;;;18.90;70.20;;;;;;5043373;28;88058;-45
2022/06/15 06:16:24;;;;;;;;;;;18.90;70.10;;;;;;5044015;28;87027;-47
2022/06/15 06:18:51;;;;;;;;;;;18.90;70.10;;;;;;5043904;27;87712;-46
2022/06/15 06:21:17;;;;;;;;;;;18.90;70.10;;;;;;5043346;28;89580;-46
2022/06/15 06:23:43;;;;;;;;;;;18.90;70.10;;;;;;5044015;28;86650;-47
2022/06/15 06:26:15;;;;;;;;;;;18.90;70.00;;;;;;5044022;28;87074;-47
2022/06/15 06:28:40;;;;;;;;;;;18.90;70.00;;;;;;5042125;28;90192;-48
2022/06/15 06:31:06;;;;;;;;;;;18.90;70.10;;;;;;5046060;28;88076;-47
2022/06/15 06:33:34;;;;;;;;;;;18.90;70.00;;;;;;5043295;28;87146;-47
2022/06/15 06:36:01;;;;;;;;;;;18.90;70.00;;;;;;5043458;28;87151;-45
2022/06/15 06:38:27;;;;;;;;;;;18.90;69.90;;;;;;5043442;27;87060;-46
2022/06/15 06:40:53;;;;;;;;;;;18.90;69.90;;;;;;5043094;28;88386;-48
2022/06/15 06:43:19;;;;;;;;;;;18.90;70.00;;;;;;5043592;28;87132;-46
2022/06/15 06:45:45;;;;;;;;;;;18.90;69.80;;;;;;5043625;28;87228;-45
2022/06/15 06:48:10;;;;;;;;;;;18.90;69.70;;;;;;5043588;28;87234;-47
2022/06/15 06:50:37;;;;;;;;;;;18.90;69.70;;;;;;5046366;28;87082;-47
2022/06/15 06:53:03;;;;;;;;;;;18.90;69.80;;;;;;5043185;28;88000;-48
2022/06/15 06:55:29;;;;;;;;;;;18.90;69.80;;;;;;5042430;28;88055;-46
2022/06/15 06:57:55;;;;;;;;;;;18.90;69.90;;;;;;5043275;27;88204;-45
2022/06/15 07:00:21;;;;;;;;;;;18.90;69.80;;;;;;5042882;28;88020;-45
2022/06/15 07:02:46;;;;;;;;;;;18.90;69.90;;;;;;5043324;28;87102;-44
2022/06/15 07:05:12;;;;;;;;;;;18.90;69.90;;;;;;5043231;28;87518;-47
2022/06/15 07:07:37;;;;;;;;;;;18.90;69.70;;;;;;5042508;28;88702;-45
2022/06/15 07:10:03;;;;;;;;;;;18.90;69.70;;;;;;5043302;28;87380;-49
2022/06/15 07:12:28;;;;;;;;;;;18.90;69.70;;;;;;5045365;27;87579;-49
2022/06/15 07:14:54;;;;;;;;;;;18.90;69.70;;;;;;5043035;28;87101;-47
2022/06/15 07:17:19;;;;;;;;;;;18.90;69.60;;;;;;5043138;28;87597;-45
2022/06/15 07:19:47;;;;;;;;;;;18.90;69.60;;;;;;5042048;28;89051;-47
2022/06/15 07:22:12;;;;;;;;;;;18.90;69.60;;;;;;5043054;28;87141;-45
2022/06/15 07:24:38;;;;;;;;;;;18.90;69.80;;;;;;5042574;27;89022;-48
2022/06/15 07:27:03;;;;;;;;;;;18.90;69.70;;;;;;5042427;28;88050;-48
2022/06/15 07:29:30;;;;;;;;;;;18.90;69.70;;;;;;5042919;28;87241;-45
2022/06/15 07:31:56;;;;;;;;;;;18.90;69.70;;;;;;5042821;28;87434;-47
2022/06/15 07:34:22;;;;;;;;;;;18.90;69.80;;;;;;5045118;28;89333;-46
2022/06/15 07:36:48;;;;;;;;;;;18.90;69.70;;;;;;5043305;27;86995;-47
2022/06/15 07:39:19;;;;;;;;;;;18.90;69.70;;;;;;5042221;28;89376;-45
2022/06/15 07:41:44;;;;;;;;;;;18.90;69.70;;;;;;5043040;28;87007;-49
2022/06/15 07:44:10;;;;;;;;;;;18.90;69.80;;;;;;5041814;27;88762;-47
2022/06/15 07:46:36;;;;;;;;;;;18.90;69.80;;;;;;5042163;28;88038;-45
2022/06/15 07:51:50;;;;;;;;;;;19.00;69.70;;;;;;5042854;28;87057;-45
2022/06/15 07:54:17;;;;;;;;;;;18.90;69.90;;;;;;5041788;28;88067;-48
2022/06/15 07:56:43;;;;;;;;;;;18.90;69.70;;;;;;5045484;28;87421;-46
2022/06/15 07:59:09;;;;;;;;;;;18.90;69.80;;;;;;5042204;28;88084;-45
2022/06/15 08:01:35;;;;;;;;;;;18.90;69.70;;;;;;5043011;28;86170;-47
2022/06/15 08:04:00;;;;;;;;;;;18.90;69.70;;;;;;5042410;28;87501;-46
2022/06/15 08:06:26;;;;;;;;;;;19.00;69.70;;;;;;5042120;28;88095;-47
2022/06/15 08:08:51;;;;;;;;;;;18.90;69.80;;;;;;5041630;28;87996;-47
2022/06/15 08:11:17;;;;;;;;;;;19.00;69.80;;;;;;5044825;27;88307;-49
2022/06/15 08:13:43;;;;;;;;;;;19.00;69.80;;;;;;5045688;28;87113;-45
2022/06/15 08:16:09;;;;;;;;;;;19.00;69.80;;;;;;5045546;28;87200;-47
2022/06/15 08:18:41;;;;;;;;;;;19.00;69.70;;;;;;5048212;27;88878;-49
2022/06/15 08:21:13;;;;;;;;;;;19.00;69.80;;;;;;5045598;28;86866;-46
2022/06/15 08:23:41;;;;;;;;;;;19.00;69.90;;;;;;5045891;28;87430;-49
2022/06/15 08:26:09;;;;;;;;;;;19.00;69.70;;;;;;5045855;28;87143;-48
2022/06/15 08:28:37;;;;;;;;;;;19.00;69.70;;;;;;5045173;28;87131;-47
2022/06/15 08:31:03;;;;;;;;;;;19.00;69.80;;;;;;5045743;28;87441;-45
2022/06/15 08:33:28;;;;;;;;;;;19.00;70.70;;;;;;5043120;28;91769;-46
2022/06/15 08:35:55;;;;;;;;;;;19.00;69.90;;;;;;5045405;28;87230;-46
2022/06/15 08:38:22;;;;;;;;;;;19.00;69.80;;;;;;5045314;27;88888;-47
2022/06/15 08:40:52;;;;;;;;;;;19.00;69.70;;;;;;5048011;28;90184;-46
2022/06/15 08:43:24;;;;;;;;;;;19.00;69.70;;;;;;5045689;27;87351;-47
2022/06/15 08:45:52;;;;;;;;;;;19.00;69.70;;;;;;5045084;28;88366;-47
2022/06/15 08:48:18;;;;;;;;;;;19.00;69.80;;;;;;5045171;28;87053;-47
2022/06/15 08:50:55;;;;;;;;;;;19.10;69.80;;;;;;5045821;28;86579;-46
2022/06/15 08:53:39;;;;;;;;;;;19.10;69.70;;;;;;5045076;28;88091;-48
2022/06/15 08:56:04;;;;;;;;;;;19.10;69.80;;;;;;5045194;27;87205;-45
2022/06/15 08:58:33;;;;;;;;;;;19.10;69.70;;;;;;5044573;28;88049;-47
2022/06/15 09:01:04;;;;;;;;;;;19.10;69.70;;;;;;5047594;28;87228;-45
2022/06/15 09:03:40;;;;;;;;;;;19.10;69.50;;;;;;5045313;27;87461;-46
2022/06/15 09:06:05;;;;;;;;;;;19.10;69.50;;;;;;5044579;28;88025;-47
2022/06/15 09:08:57;;;;;;;;;;;19.10;69.40;;;;;;5045109;28;87126;-47
2022/06/15 09:11:42;;;;;;;;;;;19.10;69.40;;;;;;5044141;27;87424;-48
2022/06/15 09:14:26;;;;;;;;;;;19.10;69.30;;;;;;5044517;27;88154;-45
2022/06/15 09:16:54;;;;;;;;;;;19.20;69.40;;;;;;5045456;28;86274;-46
2022/06/15 09:19:25;;;;;;;;;;;19.20;69.40;;;;;;5044913;28;86986;-47
2022/06/15 09:21:57;;;;;;;;;;;19.20;69.40;;;;;;5043451;27;88178;-47
2022/06/15 09:24:23;;;;;;;;;;;19.20;69.40;;;;;;5046900;28;88083;-46
2022/06/15 09:26:53;;;;;;;;;;;19.20;69.40;;;;;;5044640;28;88198;-46
2022/06/15 09:29:21;;;;;;;;;;;19.20;69.30;;;;;;5044597;27;87054;-48
2022/06/15 09:32:06;;;;;;;;;;;19.20;69.40;;;;;;5044847;28;86952;-49
2022/06/15 09:34:36;;;;;;;;;;;19.20;69.20;;;;;;5044144;28;88016;-47
2022/06/15 09:37:03;;;;;;;;;;;19.20;69.30;;;;;;5044316;28;87166;-46
2022/06/15 09:39:29;;;;;;;;;;;19.30;69.30;;;;;;5044399;28;87664;-47
2022/06/15 09:41:57;;;;;;;;;;;19.30;69.20;;;;;;5044805;28;87240;-47
2022/06/15 09:44:41;;;;;;;;;;;19.30;69.20;;;;;;5044933;28;87307;-48
2022/06/15 09:47:07;;;;;;;;;;;19.30;69.10;;;;;;5046629;28;88798;-49
2022/06/15 09:49:37;;;;;;;;;;;19.30;69.10;;;;;;5043361;28;88118;-50
2022/06/15 09:52:08;;;;;;;;;;;19.30;69.20;;;;;;5044145;27;89664;-47
2022/06/15 09:54:43;;;;;;;;;;;19.30;69.10;;;;;;5043939;28;87940;-45
2022/06/15 09:57:09;;;;;;;;;;;19.40;69.20;;;;;;5044113;28;87105;-45
2022/06/15 09:59:35;;;;;;;;;;;19.40;69.30;;;;;;5043835;27;88771;-45
2022/06/15 10:02:05;;;;;;;;;;;19.40;69.30;;;;;;5043862;28;88047;-47
2022/06/15 10:04:32;;;;;;;;;;;19.40;69.30;;;;;;5044163;28;87097;-46
2022/06/15 10:07:00;;;;;;;;;;;19.40;69.20;;;;;;5044444;27;87341;-46
2022/06/15 10:09:27;;;;;;;;;;;19.40;69.20;;;;;;5046562;27;88276;-47
2022/06/15 10:11:55;;;;;;;;;;;19.40;69.30;;;;;;5043576;27;87708;-48
2022/06/15 10:14:29;;;;;;;;;;;19.50;69.30;;;;;;5041470;28;91673;-45
2022/06/15 10:17:21;;;;;;;;;;;19.50;69.30;;;;;;5044120;28;87302;-47
2022/06/15 10:19:48;;;;;;;;;;;19.50;69.20;;;;;;5041031;28;89080;-46
2022/06/15 10:22:30;;;;;;;;;;;19.50;69.20;;;;;;5043476;28;88110;-48
2022/06/15 10:24:57;;;;;;;;;;;19.50;69.20;;;;;;5043502;28;87102;-45
2022/06/15 10:27:29;;;;;;;;;;;19.50;69.10;;;;;;5043782;28;87347;-47
2022/06/15 10:30:14;;;;;;;;;;;19.50;69.10;;;;;;5043535;28;87927;-47
2022/06/15 10:32:59;;;;;;;;;;;19.60;69.10;;;;;;5046307;27;86416;-46
2022/06/15 10:35:25;;;;;;;;;;;19.60;69.20;;;;;;5043027;28;89366;-46
2022/06/15 10:37:52;;;;;;;;;;;19.60;69.10;;;;;;5043696;28;86976;-48
2022/06/15 10:40:20;;;;;;;;;;;19.70;69.20;;;;;;5043118;27;87986;-47
2022/06/15 10:42:47;;;;;;;;;;;19.60;69.20;;;;;;5043077;28;87938;-48
2022/06/15 10:45:22;;;;;;;;;;;19.60;69.10;;;;;;5043390;28;86999;-46
2022/06/15 10:48:02;;;;;;;;;;;19.70;69.10;;;;;;5042956;28;87993;-45
2022/06/15 10:50:27;;;;;;;;;;;19.70;69.10;;;;;;5042971;28;87978;-47
2022/06/15 10:52:58;;;;;;;;;;;19.70;69.10;;;;;;5043600;28;87114;-47
2022/06/15 11:04:08;;;;;;;;;;;19.80;68.80;;;;;;5042230;28;87216;-46
2022/06/15 11:06:53;;;;;;;;;;;19.80;68.80;;;;;;5042351;28;88096;-48
2022/06/15 11:09:25;;;;;;;;;;;19.90;68.80;;;;;;5043370;28;88407;-47
2022/06/15 11:11:51;;;;;;;;;;;19.90;68.70;;;;;;5042353;28;88101;-47
2022/06/15 11:14:23;;;;;;;;;;;19.90;68.50;;;;;;5042966;28;87103;-47
2022/06/15 11:19:36;;;;;;;;;;;19.90;68.40;;;;;;5043033;28;87004;-46
2022/06/15 11:22:08;;;;;;;;;;;20.00;68.50;;;;;;5041657;28;91907;-47
2022/06/15 11:24:33;;;;;;;;;;;20.00;68.50;;;;;;5042770;28;88927;-46
2022/06/15 11:27:11;;;;;;;;;;;20.00;68.40;;;;;;5042956;28;87301;-47
2022/06/15 11:29:48;;;;;;;;;;;20.00;68.30;;;;;;5042754;28;87456;-47
2022/06/15 11:32:32;;;;;;;;;;;20.00;68.30;;;;;;5041747;28;90291;-48
2022/06/15 11:35:06;;;;;;;;;;;20.00;68.30;;;;;;5042979;27;87189;-47
2022/06/15 11:37:42;;;;;;;;;;;20.10;68.20;;;;;;5042939;28;87386;-45
2022/06/15 11:40:14;;;;;;;;;;;20.10;68.20;;;;;;5045385;28;88159;-45
2022/06/15 11:42:40;;;;;;;;;;;20.10;68.10;;;;;;5043085;27;87312;-46
2022/06/15 11:45:12;;;;;;;;;;;20.20;68.20;;;;;;5041489;28;87067;-47
2022/06/15 11:47:41;;;;;;;;;;;20.20;68.10;;;;;;5042757;28;87026;-47
2022/06/15 11:50:16;;;;;;;;;;;20.20;68.70;;;;;;5042993;27;88977;-48
2022/06/15 11:52:53;;;;;;;;;;;20.20;68.00;;;;;;5042410;28;88298;-47
2022/06/15 11:55:34;;;;;;;;;;;20.20;68.10;;;;;;5042585;28;87188;-45
2022/06/15 11:58:02;;;;;;;;;;;20.30;68.00;;;;;;5042061;28;88205;-50
2022/06/15 12:00:31;;;;;;;;;;;20.30;67.90;;;;;;5042000;28;89385;-48
2022/06/15 12:03:02;;;;;;;;;;;20.30;67.90;;;;;;5045380;28;87520;-48
2022/06/15 12:05:42;;;;;;;;;;;20.30;67.80;;;;;;5042220;28;87918;-46
2022/06/15 12:08:20;;;;;;;;;;;20.30;67.70;;;;;;5042507;28;86958;-45
2022/06/15 12:10:49;;;;;;;;;;;20.40;67.60;;;;;;5042031;27;89011;-48
2022/06/15 12:13:17;;;;;;;;;;;20.40;67.70;;;;;;5041706;28;89445;-48
2022/06/15 12:15:45;;;;;;;;;;;20.40;67.50;;;;;;5042932;28;86307;-47
2022/06/15 12:18:19;;;;;;;;;;;20.40;68.10;;;;;;5042330;27;87029;-46
2022/06/15 12:21:03;;;;;;;;;;;20.50;67.60;;;;;;5041849;28;87969;-48
2022/06/15 12:23:32;;;;;;;;;;;20.50;67.50;;;;;;5041595;27;88156;-45
2022/06/15 12:26:03;;;;;;;;;;;20.50;67.60;;;;;;5044740;28;88471;-47
2022/06/15 12:28:47;;;;;;;;;;;20.50;67.20;;;;;;5041760;28;87057;-48
2022/06/15 12:31:21;;;;;;;;;;;20.50;67.40;;;;;;5042285;27;87427;-46
2022/06/15 12:33:52;;;;;;;;;;;20.50;67.10;;;;;;5041670;28;88199;-48
2022/06/15 12:36:28;;;;;;;;;;;20.50;67.30;;;;;;5041872;28;87688;-46
2022/06/15 12:39:03;;;;;;;;;;;20.60;67.20;;;;;;5041736;27;88672;-48
2022/06/15 12:44:17;;;;;;;;;;;20.60;67.10;;;;;;5041952;28;87078;-47
2022/06/15 12:46:44;;;;;;;;;;;20.60;67.20;;;;;;5041496;27;88856;-46
2022/06/15 12:49:18;;;;;;;;;;;20.70;67.30;;;;;;5043489;28;90352;-47
2022/06/15 12:51:56;;;;;;;;;;;20.70;67.30;;;;;;5042088;28;88508;-45
2022/06/15 12:54:21;;;;;;;;;;;20.80;67.30;;;;;;5041596;28;88136;-48
2022/06/15 12:56:57;;;;;;;;;;;20.80;67.40;;;;;;5043524;27;87117;-46
2022/06/15 12:59:26;;;;;;;;;;;20.80;67.10;;;;;;5044968;27;88990;-47
2022/06/15 13:01:58;;;;;;;;;;;20.80;67.40;;;;;;5044489;28;89221;-47
2022/06/15 13:04:47;;;;;;;;;;;20.80;67.40;;;;;;5045230;28;87147;-45
2022/06/15 13:07:18;;;;;;;;;;;20.80;67.30;;;;;;5045617;27;87454;-46
2022/06/15 13:10:03;;;;;;;;;;;20.80;67.00;;;;;;5044238;28;89451;-47
2022/06/15 13:12:41;;;;;;;;;;;20.90;67.10;;;;;;5047007;28;87106;-48
2022/06/15 13:15:16;;;;;;;;;;;20.80;66.90;;;;;;5043857;28;89076;-47
2022/06/15 13:18:08;;;;;;;;;;;20.90;67.00;;;;;;5044708;28;86965;-48
2022/06/15 13:20:53;;;;;;;;;;;20.90;67.60;;;;;;5044865;28;89088;-46
2022/06/15 13:23:22;;;;;;;;;;;21.00;67.00;;;;;;5044395;28;87562;-46
2022/06/15 13:25:52;;;;;;;;;;;21.00;66.90;;;;;;5044843;28;87084;-48
2022/06/15 13:28:20;;;;;;;;;;;21.00;67.00;;;;;;5044464;27;88982;-48
2022/06/15 13:30:49;;;;;;;;;;;21.10;66.90;;;;;;5044207;28;88123;-45
2022/06/15 13:33:15;;;;;;;;;;;21.10;66.80;;;;;;5047734;28;86375;-45
2022/06/15 13:35:45;;;;;;;;;;;21.10;66.70;;;;;;5044254;28;88078;-45
2022/06/15 13:38:13;;;;;;;;;;;21.10;67.20;;;;;;5044387;28;87092;-46
2022/06/15 13:40:57;;;;;;;;;;;21.20;66.60;;;;;;5043905;28;87922;-46
2022/06/15 13:43:25;;;;;;;;;;;21.20;66.50;;;;;;5044115;28;87988;-45
2022/06/15 13:45:52;;;;;;;;;;;21.20;66.60;;;;;;5044294;28;87052;-50
2022/06/15 13:48:21;;;;;;;;;;;21.20;66.50;;;;;;5044377;27;87419;-46
2022/06/15 13:50:54;;;;;;;;;;;21.20;66.60;;;;;;5043952;28;88408;-48
2022/06/15 13:53:20;;;;;;;;;;;21.30;67.00;;;;;;5044069;28;87100;-48
2022/06/15 13:55:56;;;;;;;;;;;21.30;66.50;;;;;;5046882;28;87509;-47
2022/06/15 13:58:31;;;;;;;;;;;21.30;66.70;;;;;;5044660;28;86207;-48
2022/06/15 14:00:56;;;;;;;;;;;21.30;66.10;;;;;;5044352;27;87110;-46
2022/06/15 14:03:24;;;;;;;;;;;21.30;66.30;;;;;;5044002;28;88143;-48
2022/06/15 14:05:53;;;;;;;;;;;21.40;66.10;;;;;;5043510;28;88022;-45
2022/06/15 14:08:18;;;;;;;;;;;21.40;65.90;;;;;;5043236;27;88716;-50
2022/06/15 14:10:47;;;;;;;;;;;21.40;65.50;;;;;;5043678;28;87710;-45
2022/06/15 14:13:31;;;;;;;;;;;21.50;65.70;;;;;;5043886;28;87270;-48
2022/06/15 14:15:59;;;;;;;;;;;21.50;65.50;;;;;;5044248;28;87588;-47
2022/06/15 14:18:34;;;;;;;;;;;21.50;65.50;;;;;;5046767;28;88183;-45
2022/06/15 14:21:12;;;;;;;;;;;21.60;65.20;;;;;;5043641;27;88741;-46
2022/06/15 14:23:39;;;;;;;;;;;21.60;65.00;;;;;;5044096;28;88433;-47
2022/06/15 14:26:06;;;;;;;;;;;21.60;65.90;;;;;;5043982;28;87217;-45
2022/06/15 14:28:32;;;;;;;;;;;21.60;65.70;;;;;;5043656;27;87306;-48
2022/06/15 14:31:01;;;;;;;;;;;21.60;65.50;;;;;;5042739;28;88898;-46
2022/06/15 14:33:27;;;;;;;;;;;21.60;64.80;;;;;;5043429;28;87003;-45
2022/06/15 14:35:57;;;;;;;;;;;21.60;65.00;;;;;;5043539;27;88941;-47
2022/06/15 14:38:22;;;;;;;;;;;21.70;64.90;;;;;;5043002;28;88196;-47
2022/06/15 14:40:50;;;;;;;;;;;21.70;65.10;;;;;;5046600;28;87134;-45
2022/06/15 14:43:19;;;;;;;;;;;21.70;65.40;;;;;;5043130;28;88713;-45
2022/06/15 14:45:53;;;;;;;;;;;21.80;64.90;;;;;;5043378;28;87116;-45
2022/06/15 14:48:26;;;;;;;;;;;21.80;65.00;;;;;;5044038;28;87564;-46